This is the latest recevied weather packets stored in our database for station/object W1LBM. If no packets are shown the sender has not sent any weather packets the latest 1 day(s).
| Time | Temp. | Humidity | Pressure | Rain* | Wind** | Luminosity | Snow |
|---|---|---|---|---|---|---|---|
| 1778021456 | 19.44° C | 58% | 1012.2 hPa | 0 mm | 0.89 m/s, 141° | 53 W/m² | - |
| 1778021153 | 20° C | 57% | 1012 hPa | 0 mm | 1.34 m/s, 157° | 55 W/m² | - |
| 1778020851 | 20° C | 56% | 1012.1 hPa | 0 mm | 3.58 m/s, 170° | 60 W/m² | - |
| 1778020548 | 20° C | 58% | 1012.1 hPa | 0 mm | 1.34 m/s, 132° | 62 W/m² | - |
| 1778020244 | 19.44° C | 58% | 1012.2 hPa | 0 mm | 0.89 m/s, 166° | 65 W/m² | - |
| 1778019940 | 18.89° C | 61% | 1012.1 hPa | 0 mm | 0 m/s | 72 W/m² | - |
| 1778019636 | 18.89° C | 61% | 1012.1 hPa | 0 mm | 0.89 m/s, 108° | 67 W/m² | - |
| 1778019334 | 18.89° C | 61% | 1012 hPa | 0 mm | 0.89 m/s, 141° | 67 W/m² | - |
| 1778019030 | 18.89° C | 62% | 1012 hPa | 0 mm | 0.45 m/s, 126° | 72 W/m² | - |
| 1778018727 | 18.89° C | 62% | 1012 hPa | 0 mm | 0 m/s | 63 W/m² | - |
| 1778018425 | 18.89° C | 62% | 1011.8 hPa | 0 mm | 0.45 m/s, 109° | 61 W/m² | - |
| 1778018126 | 20° C | 61% | 1012 hPa | 0 mm | 0.89 m/s, 137° | 63 W/m² | - |
| 1778017821 | 20° C | 60% | 1012.1 hPa | 0 mm | 0.89 m/s, 122° | 78 W/m² | - |
| 1778017519 | 21.11° C | 58% | 1011.9 hPa | 0 mm | 1.34 m/s, 139° | 35 W/m² | - |
| 1778017215 | 21.67° C | 54% | 1011.8 hPa | 0 mm | 1.34 m/s, 121° | 109 W/m² | - |
| 1778016913 | 22.22° C | 52% | 1011.7 hPa | 0 mm | 2.68 m/s, 161° | 105 W/m² | - |
| 1778016609 | 22.22° C | 52% | 1011.8 hPa | 0 mm | 0.45 m/s, 122° | 78 W/m² | - |
| 1778016306 | 22.22° C | 52% | 1011.5 hPa | 0 mm | 2.24 m/s, 206° | 92 W/m² | - |
| 1778016002 | 22.22° C | 51% | 1011.7 hPa | 0 mm | 0.89 m/s, 133° | 69 W/m² | - |
| 1778015700 | 22.22° C | 52% | 1011.8 hPa | 0 mm | 1.34 m/s, 170° | 94 W/m² | - |
| 1778015396 | 22.22° C | 52% | 1011.7 hPa | 0 mm | 2.68 m/s, 183° | 228 W/m² | - |
| 1778015093 | 21.67° C | 56% | 1011.8 hPa | 0 mm | 0.89 m/s, 163° | 288 W/m² | - |
| 1778014790 | 21.11° C | 56% | 1011.9 hPa | 0 mm | 0.45 m/s, 150° | 196 W/m² | - |
| 1778014489 | 21.11° C | 57% | 1011.7 hPa | 0 mm | 0.89 m/s, 137° | 178 W/m² | - |
| 1778014185 | 21.67° C | 56% | 1011.7 hPa | 0 mm | 1.34 m/s, 134° | 120 W/m² | - |
* Rain latest hour (hover to see other rain measurements)
** Current wind speed in m/s (hover to see current wind gust speed)